Time;durP1;ratioP1;P1;durP2;ratioP2;P2;SDS_P1;SDS_P2;PMS_P1;PMS_P2;Temp;Humidity;BMP_temperature;BMP_pressure;BME280_temperature;BME280_humidity;BME280_pressure;Samples;Min_cycle;Max_cycle;Signal;HPM_P1;HPM_P2
2022/11/30 00:02:24;;;;;;;0.15;0.15;;;5.50;99.90;;;;;;5033973;28;20493;-65
2022/11/30 00:04:49;;;;;;;0.38;0.38;;;5.60;99.90;;;;;;5027869;28;20076;-65
2022/11/30 00:07:15;;;;;;;6.13;0.95;;;5.60;99.90;;;;;;5023517;28;20045;-65
2022/11/30 00:09:40;;;;;;;1.00;0.57;;;5.60;99.90;;;;;;5030703;28;20079;-65
2022/11/30 00:12:06;;;;;;;0.47;0.47;;;5.70;99.90;;;;;;5019616;28;20389;-65
2022/11/30 00:14:32;;;;;;;0.30;0.30;;;5.80;99.90;;;;;;5024521;28;20033;-65
2022/11/30 00:16:57;;;;;;;0.20;0.20;;;5.80;99.90;;;;;;5035089;28;20115;-64
2022/11/30 00:19:23;;;;;;;0.47;0.47;;;5.90;99.90;;;;;;5023522;28;20448;-65
2022/11/30 00:21:49;;;;;;;0.10;0.10;;;5.90;99.90;;;;;;5027537;28;20049;-65
2022/11/30 00:24:14;;;;;;;0.38;0.38;;;5.90;99.90;;;;;;5027784;28;20117;-65
2022/11/30 00:26:40;;;;;;;0.10;0.10;;;5.90;99.90;;;;;;5017390;28;20038;-65
2022/11/30 00:29:05;;;;;;;0.25;0.25;;;6.00;99.90;;;;;;5030243;28;20045;-65
2022/11/30 00:31:31;;;;;;;0.10;0.10;;;6.00;99.90;;;;;;5037929;28;20076;-65
2022/11/30 00:33:57;;;;;;;0.32;0.32;;;6.10;99.90;;;;;;5016979;28;20045;-66
2022/11/30 00:36:23;;;;;;;0.28;0.28;;;6.10;99.90;;;;;;5028890;28;20102;-65
2022/11/30 00:38:49;;;;;;;0.80;0.63;;;6.10;99.90;;;;;;5025828;28;20064;-65
2022/11/30 00:41:16;;;;;;;0.20;0.20;;;6.20;99.90;;;;;;5031872;28;20060;-65
2022/11/30 00:43:42;;;;;;;1.08;1.08;;;6.20;99.90;;;;;;5028644;28;20132;-65
2022/11/30 00:46:08;;;;;;;0.10;0.10;;;6.30;99.90;;;;;;5026043;28;20137;-66
2022/11/30 00:48:34;;;;;;;0.28;0.28;;;6.30;99.90;;;;;;5021634;28;20041;-66
2022/11/30 00:51:00;;;;;;;0.15;0.15;;;6.30;99.90;;;;;;5029487;28;20049;-66
2022/11/30 00:53:26;;;;;;;0.10;0.10;;;6.30;99.90;;;;;;5028506;28;20099;-66
2022/11/30 00:55:52;;;;;;;0.68;0.68;;;6.30;99.90;;;;;;5029228;28;20439;-65
2022/11/30 00:58:18;;;;;;;0.43;0.43;;;6.40;99.90;;;;;;5010615;28;20547;-66
2022/11/30 01:00:44;;;;;;;0.10;0.10;;;6.40;99.90;;;;;;5034343;28;20128;-65
2022/11/30 01:03:10;;;;;;;0.73;0.73;;;6.40;99.90;;;;;;5025826;28;20087;-66
2022/11/30 01:05:37;;;;;;;0.10;0.10;;;6.40;99.90;;;;;;5020949;28;20050;-66
2022/11/30 01:08:04;;;;;;;0.47;0.47;;;6.50;99.90;;;;;;5018018;28;20045;-66
2022/11/30 01:10:32;;;;;;;0.47;0.47;;;6.50;99.90;;;;;;5016986;28;20103;-66
2022/11/30 01:12:58;;;;;;;0.57;0.57;;;6.50;99.90;;;;;;5018775;28;20041;-66
2022/11/30 01:15:23;;;;;;;0.20;0.20;;;6.50;99.90;;;;;;5033631;28;20568;-63
2022/11/30 01:17:49;;;;;;;0.55;0.55;;;6.50;99.90;;;;;;5026172;28;20041;-63
2022/11/30 01:20:15;;;;;;;0.13;0.13;;;6.50;99.90;;;;;;5035303;28;20041;-63
2022/11/30 01:22:40;;;;;;;0.10;0.10;;;6.60;99.90;;;;;;5030939;28;20037;-63
2022/11/30 01:25:06;;;;;;;1.02;0.93;;;6.50;99.90;;;;;;5036677;28;20040;-63
2022/11/30 01:27:32;;;;;;;0.10;0.10;;;6.50;99.90;;;;;;5029455;28;20045;-63
2022/11/30 01:29:58;;;;;;;0.40;0.40;;;6.60;99.90;;;;;;5031772;28;20052;-64
2022/11/30 01:32:23;;;;;;;0.93;0.93;;;6.60;99.90;;;;;;5030386;28;20128;-63
2022/11/30 01:34:49;;;;;;;0.10;0.10;;;6.60;99.90;;;;;;5016827;28;20125;-63
2022/11/30 01:37:14;;;;;;;0.75;0.75;;;6.60;99.90;;;;;;5029337;28;20038;-63
2022/11/30 01:39:42;;;;;;;0.65;0.63;;;6.60;99.90;;;;;;5032876;28;20045;-63
2022/11/30 01:42:14;;;;;;;0.80;0.80;;;6.60;99.90;;;;;;5024092;28;20066;-64
2022/11/30 01:44:50;;;;;;;0.08;0.08;;;6.50;99.90;;;;;;5022402;28;20037;-63
2022/11/30 01:47:18;;;;;;;0.80;0.80;;;6.50;99.90;;;;;;5028647;28;20072;-64
2022/11/30 01:49:51;;;;;;;1.35;1.25;;;6.50;99.90;;;;;;5040112;28;20077;-63
2022/11/30 01:52:24;;;;;;;0.80;0.80;;;6.40;99.90;;;;;;5035393;28;20463;-63
2022/11/30 01:55:00;;;;;;;0.28;0.28;;;6.40;99.90;;;;;;5021354;28;20042;-64
2022/11/30 01:57:35;;;;;;;0.10;0.10;;;6.40;99.90;;;;;;5015442;28;20042;-63
2022/11/30 02:00:06;;;;;;;1.25;1.10;;;6.30;99.90;;;;;;5018806;28;20374;-64
2022/11/30 02:03:12;;;;;;;0.10;0.10;;;6.30;99.90;;;;;;5029420;28;20112;-63
2022/11/30 02:05:39;;;;;;;0.25;0.25;;;6.30;99.90;;;;;;5029585;28;20120;-64
2022/11/30 02:08:06;;;;;;;1.52;1.42;;;6.20;99.90;;;;;;5024931;28;20048;-64
2022/11/30 02:10:36;;;;;;;1.92;1.25;;;6.20;99.90;;;;;;5024381;28;20127;-63
2022/11/30 02:13:20;;;;;;;0.43;0.43;;;6.30;99.90;;;;;;5013741;28;20132;-63
2022/11/30 02:16:09;;;;;;;2.38;2.17;;;6.30;99.90;;;;;;5034563;28;20063;-64
2022/11/30 02:19:08;;;;;;;0.17;0.17;;;6.30;99.90;;;;;;5012407;28;20468;-64
2022/11/30 02:22:02;;;;;;;0.60;0.60;;;6.30;99.90;;;;;;5036315;28;20044;-64
2022/11/30 02:24:59;;;;;;;0.17;0.17;;;6.30;99.90;;;;;;5023251;28;20128;-64
2022/11/30 02:27:58;;;;;;;0.32;0.32;;;6.20;99.90;;;;;;5021231;28;20132;-64
2022/11/30 02:30:24;;;;;;;0.85;0.85;;;6.30;99.90;;;;;;5037889;28;20053;-64
2022/11/30 02:32:55;;;;;;;1.63;1.52;;;6.20;99.90;;;;;;5039490;28;20045;-64
2022/11/30 02:35:29;;;;;;;0.10;0.10;;;6.20;99.90;;;;;;5033610;28;20045;-64
2022/11/30 02:37:56;;;;;;;0.40;0.40;;;6.20;99.90;;;;;;5013481;28;20382;-64
2022/11/30 02:40:22;;;;;;;0.10;0.10;;;6.20;99.90;;;;;;5042100;28;20045;-64
2022/11/30 02:42:50;;;;;;;0.30;0.30;;;6.10;99.90;;;;;;5025667;28;20400;-64
2022/11/30 02:45:25;;;;;;;0.22;0.22;;;6.10;99.90;;;;;;5028513;28;20055;-64
2022/11/30 02:48:06;;;;;;;0.43;0.43;;;6.00;99.90;;;;;;5041788;28;20052;-64
2022/11/30 02:50:46;;;;;;;1.15;1.13;;;5.90;99.90;;;;;;5022540;28;20048;-64
2022/11/30 02:53:12;;;;;;;0.20;0.20;;;5.80;99.90;;;;;;5021901;28;20064;-64
2022/11/30 02:55:38;;;;;;;0.63;0.63;;;5.80;99.90;;;;;;5038225;28;20056;-64
2022/11/30 02:58:04;;;;;;;0.10;0.10;;;5.80;99.90;;;;;;5024635;28;20049;-64
2022/11/30 03:00:30;;;;;;;0.20;0.20;;;5.80;99.90;;;;;;5017422;28;20067;-64
2022/11/30 03:02:55;;;;;;;0.15;0.15;;;5.70;99.90;;;;;;5030046;28;20056;-64
2022/11/30 03:05:21;;;;;;;7.72;1.98;;;5.70;99.90;;;;;;5024651;28;20045;-64
2022/11/30 03:07:46;;;;;;;0.00;0.00;;;5.70;99.90;;;;;;5028469;28;20045;-64
2022/11/30 03:10:12;;;;;;;0.35;0.35;;;5.60;99.90;;;;;;5026627;28;20045;-64
2022/11/30 03:12:37;;;;;;;1.08;0.98;;;5.60;99.90;;;;;;5030678;28;20587;-64
2022/11/30 03:15:04;;;;;;;0.22;0.22;;;5.60;99.90;;;;;;5038173;28;20071;-64
2022/11/30 03:17:29;;;;;;;0.52;0.52;;;5.50;99.90;;;;;;5018881;28;20041;-64
2022/11/30 03:19:55;;;;;;;0.20;0.20;;;5.60;99.90;;;;;;5031112;28;20071;-64
2022/11/30 03:22:20;;;;;;;0.15;0.15;;;5.40;99.90;;;;;;5024794;28;20125;-64
2022/11/30 03:24:46;;;;;;;0.10;0.10;;;5.30;99.90;;;;;;5029897;28;20115;-64
2022/11/30 03:27:12;;;;;;;0.43;0.30;;;5.30;99.90;;;;;;5023133;28;20084;-64
2022/11/30 03:29:38;;;;;;;0.15;0.15;;;5.30;99.90;;;;;;5019712;28;20064;-64
2022/11/30 03:32:04;;;;;;;0.10;0.10;;;5.40;99.90;;;;;;5027319;28;20076;-64
2022/11/30 03:34:29;;;;;;;0.15;0.15;;;5.40;99.90;;;;;;5037042;28;20073;-64
2022/11/30 03:36:55;;;;;;;0.10;0.10;;;5.40;99.90;;;;;;5032197;28;21846;-64
2022/11/30 03:39:21;;;;;;;0.20;0.20;;;5.40;99.90;;;;;;5013110;28;20128;-64
2022/11/30 03:41:46;;;;;;;2.47;1.10;;;5.40;99.90;;;;;;5039428;28;20091;-64
2022/11/30 03:44:12;;;;;;;0.47;0.47;;;5.40;99.90;;;;;;5028305;28;20619;-64
2022/11/30 03:46:37;;;;;;;0.90;0.85;;;5.40;99.90;;;;;;5017478;28;20582;-64
2022/11/30 03:49:03;;;;;;;0.63;0.63;;;5.40;99.90;;;;;;5028509;28;20042;-64
2022/11/30 03:51:28;;;;;;;2.60;2.15;;;5.40;99.90;;;;;;5021854;28;20049;-64
2022/11/30 03:53:54;;;;;;;2.08;1.85;;;5.40;99.90;;;;;;5031918;28;20049;-64
2022/11/30 03:56:19;;;;;;;0.35;0.28;;;5.40;99.90;;;;;;5028593;28;20036;-64
2022/11/30 03:58:45;;;;;;;0.52;0.52;;;5.30;99.90;;;;;;5031483;28;21367;-64
2022/11/30 04:01:16;;;;;;;0.43;0.43;;;5.30;99.90;;;;;;5024207;28;20050;-64
2022/11/30 04:03:42;;;;;;;0.57;0.57;;;5.20;99.90;;;;;;5018677;28;20064;-64
2022/11/30 04:06:10;;;;;;;1.00;1.00;;;5.20;99.90;;;;;;5017457;28;20045;-64
2022/11/30 04:08:37;;;;;;;0.20;0.20;;;5.20;99.90;;;;;;5025055;28;20490;-64
2022/11/30 04:11:04;;;;;;;0.47;0.47;;;5.20;99.90;;;;;;5018156;28;20057;-64
2022/11/30 04:13:31;;;;;;;0.57;0.57;;;5.20;99.90;;;;;;5019533;28;20046;-64
2022/11/30 04:15:57;;;;;;;0.10;0.10;;;5.20;99.90;;;;;;5029575;28;20051;-64
2022/11/30 04:18:25;;;;;;;0.10;0.10;;;5.20;99.90;;;;;;5020208;28;20116;-64
2022/11/30 04:20:52;;;;;;;0.28;0.28;;;5.10;99.90;;;;;;5027397;28;20433;-64
2022/11/30 04:23:19;;;;;;;0.20;0.20;;;5.10;99.90;;;;;;5017702;28;20716;-64
2022/11/30 04:25:46;;;;;;;0.95;0.95;;;5.10;99.90;;;;;;5041504;28;20045;-64
2022/11/30 04:28:12;;;;;;;0.90;0.90;;;5.10;99.90;;;;;;5037476;28;20418;-64
2022/11/30 04:30:38;;;;;;;0.20;0.20;;;5.10;99.90;;;;;;5026788;28;20049;-64
2022/11/30 04:33:05;;;;;;;0.10;0.10;;;5.10;99.90;;;;;;5030986;28;20050;-64
2022/11/30 04:35:31;;;;;;;7.57;1.65;;;5.00;99.90;;;;;;5044308;28;20045;-64
2022/11/30 04:37:57;;;;;;;1.38;1.27;;;5.10;99.90;;;;;;5022258;28;20041;-64
2022/11/30 04:40:23;;;;;;;0.45;0.45;;;5.10;99.90;;;;;;5020808;28;20135;-64
2022/11/30 04:42:48;;;;;;;0.40;0.40;;;5.10;99.90;;;;;;5028623;28;22074;-64
2022/11/30 04:45:14;;;;;;;0.82;0.77;;;5.10;99.90;;;;;;5037351;28;20072;-64
2022/11/30 04:47:39;;;;;;;0.68;0.68;;;5.00;99.90;;;;;;5034243;28;20050;-64
2022/11/30 04:50:07;;;;;;;0.50;0.50;;;5.00;99.90;;;;;;5024377;28;20122;-63
2022/11/30 04:52:33;;;;;;;0.10;0.10;;;5.00;99.90;;;;;;5035383;28;20663;-63
2022/11/30 04:54:59;;;;;;;4.25;0.80;;;5.10;99.90;;;;;;5028199;28;20128;-64
2022/11/30 04:57:24;;;;;;;0.10;0.10;;;5.10;99.90;;;;;;5022673;28;20144;-64
2022/11/30 04:59:51;;;;;;;0.10;0.10;;;5.10;99.90;;;;;;5031231;28;21036;-64
2022/11/30 05:02:16;;;;;;;1.40;0.77;;;5.10;99.90;;;;;;5043764;28;20055;-63
2022/11/30 05:04:42;;;;;;;2.08;0.68;;;5.10;99.90;;;;;;5018130;28;20037;-64
2022/11/30 05:07:08;;;;;;;1.80;1.70;;;5.10;99.90;;;;;;5039830;28;20047;-64
2022/11/30 05:09:33;;;;;;;0.47;0.47;;;5.20;99.90;;;;;;5035764;28;20046;-64
2022/11/30 05:11:59;;;;;;;0.20;0.20;;;5.30;99.90;;;;;;5022590;28;20048;-64
2022/11/30 05:14:25;;;;;;;0.65;0.65;;;5.40;99.90;;;;;;5019588;28;20061;-64
2022/11/30 05:16:50;;;;;;;0.52;0.52;;;5.30;99.90;;;;;;5023991;28;20038;-64
2022/11/30 05:19:16;;;;;;;0.20;0.20;;;5.30;99.90;;;;;;5032672;28;20037;-64
2022/11/30 05:21:42;;;;;;;0.10;0.10;;;5.30;99.90;;;;;;5028377;28;20045;-63
2022/11/30 05:24:08;;;;;;;0.95;0.90;;;5.30;99.90;;;;;;5022702;28;20040;-64
2022/11/30 05:26:34;;;;;;;0.20;0.20;;;5.40;99.90;;;;;;5035510;28;20507;-64
2022/11/30 05:29:00;;;;;;;1.65;0.65;;;5.40;99.90;;;;;;5015382;28;20583;-63
2022/11/30 05:31:25;;;;;;;2.25;0.75;;;5.40;99.90;;;;;;5024072;28;20057;-64
2022/11/30 05:33:52;;;;;;;0.47;0.47;;;5.30;99.90;;;;;;5024320;28;20068;-64
2022/11/30 05:36:17;;;;;;;0.43;0.43;;;5.30;99.90;;;;;;5031660;28;20373;-64
2022/11/30 05:38:43;;;;;;;0.52;0.45;;;5.30;99.90;;;;;;5024982;28;20055;-64
2022/11/30 05:41:09;;;;;;;0.60;0.60;;;5.20;99.90;;;;;;5021273;28;20428;-64
2022/11/30 05:43:35;;;;;;;0.63;0.63;;;5.30;99.90;;;;;;5031302;28;20045;-64
2022/11/30 05:46:05;;;;;;;0.50;0.50;;;5.30;99.90;;;;;;5032203;28;20397;-64
2022/11/30 05:48:30;;;;;;;0.15;0.15;;;5.30;99.90;;;;;;5024256;28;20041;-63
2022/11/30 05:51:14;;;;;;;1.55;1.45;;;5.30;99.90;;;;;;5037489;28;20086;-64
2022/11/30 05:53:40;;;;;;;0.80;0.80;;;5.30;99.90;;;;;;5021313;28;20049;-64
2022/11/30 05:56:09;;;;;;;0.85;0.85;;;5.30;99.90;;;;;;5027162;28;20046;-63
2022/11/30 05:58:36;;;;;;;0.30;0.30;;;5.30;99.90;;;;;;5037060;28;20447;-64
2022/11/30 06:01:02;;;;;;;2.65;1.05;;;5.20;99.90;;;;;;5025397;28;20454;-63
2022/11/30 06:03:29;;;;;;;0.85;0.85;;;5.20;99.90;;;;;;5037345;28;20112;-64
2022/11/30 06:05:54;;;;;;;0.47;0.47;;;5.20;99.90;;;;;;5035516;28;20049;-64
2022/11/30 06:08:20;;;;;;;0.10;0.10;;;5.20;99.90;;;;;;5023584;28;20037;-64
2022/11/30 06:10:45;;;;;;;0.10;0.10;;;5.20;99.90;;;;;;5019870;28;20053;-64
2022/11/30 06:13:12;;;;;;;0.10;0.10;;;5.20;99.90;;;;;;5045268;28;20041;-64
2022/11/30 06:15:41;;;;;;;0.10;0.10;;;5.20;99.90;;;;;;5026633;28;20405;-63
2022/11/30 06:18:09;;;;;;;0.10;0.10;;;5.20;99.90;;;;;;5030682;28;20037;-63
2022/11/30 06:20:35;;;;;;;0.57;0.57;;;5.30;99.90;;;;;;5038081;28;20061;-63
2022/11/30 06:23:01;;;;;;;0.30;0.30;;;5.40;99.90;;;;;;5025546;28;20804;-63
2022/11/30 06:25:26;;;;;;;1.55;1.45;;;5.40;99.90;;;;;;5011860;28;20053;-64
2022/11/30 06:27:52;;;;;;;0.47;0.47;;;5.40;99.90;;;;;;5024727;28;20065;-63
2022/11/30 06:30:18;;;;;;;0.10;0.10;;;5.50;99.90;;;;;;5031217;28;20214;-64
2022/11/30 06:32:45;;;;;;;0.20;0.20;;;5.60;99.90;;;;;;5026360;28;20651;-64
2022/11/30 06:35:10;;;;;;;3.30;1.17;;;5.50;99.90;;;;;;5026093;28;20042;-64
2022/11/30 06:37:36;;;;;;;1.92;1.83;;;5.50;99.90;;;;;;5034146;28;20055;-63
2022/11/30 06:40:02;;;;;;;1.48;1.15;;;5.50;99.90;;;;;;5022686;28;20064;-64
2022/11/30 06:42:29;;;;;;;0.68;0.68;;;5.50;99.90;;;;;;5009919;28;20064;-64
2022/11/30 06:44:54;;;;;;;0.73;0.73;;;5.40;99.90;;;;;;5025914;28;20124;-63
2022/11/30 06:47:20;;;;;;;0.10;0.10;;;5.40;99.90;;;;;;5018855;28;20128;-63
2022/11/30 06:49:46;;;;;;;1.67;1.58;;;5.40;99.90;;;;;;5028517;28;20046;-64
2022/11/30 06:52:11;;;;;;;0.43;0.43;;;5.40;99.90;;;;;;5025710;28;20049;-63
2022/11/30 06:54:37;;;;;;;0.68;0.68;;;5.40;99.90;;;;;;5029870;28;20041;-63
2022/11/30 06:57:03;;;;;;;0.93;0.90;;;5.40;99.90;;;;;;5015952;28;20048;-63
2022/11/30 06:59:28;;;;;;;4.60;1.60;;;5.30;99.90;;;;;;5024221;28;20452;-63
2022/11/30 07:01:54;;;;;;;1.17;1.10;;;5.40;99.90;;;;;;5027134;28;20061;-64
2022/11/30 07:04:19;;;;;;;1.48;0.95;;;5.40;99.90;;;;;;5019792;28;20408;-64
2022/11/30 07:06:45;;;;;;;1.42;1.33;;;5.40;99.90;;;;;;5017632;28;20073;-64
2022/11/30 07:09:12;;;;;;;0.20;0.20;;;5.30;99.90;;;;;;5027301;28;20049;-64
2022/11/30 07:11:37;;;;;;;0.57;0.57;;;5.30;99.90;;;;;;5017026;28;20397;-64
2022/11/30 07:14:03;;;;;;;0.25;0.25;;;5.30;99.90;;;;;;5012878;28;20061;-64
2022/11/30 07:16:28;;;;;;;0.25;0.25;;;5.20;99.90;;;;;;5029115;28;20041;-64
2022/11/30 07:18:54;;;;;;;0.28;0.28;;;5.20;99.90;;;;;;5022626;28;20038;-64
2022/11/30 07:21:19;;;;;;;0.10;0.10;;;5.20;99.90;;;;;;5016567;28;20048;-64
2022/11/30 07:26:29;;;;;;;0.55;0.55;;;5.20;99.90;;;;;;5009039;28;20045;-65
2022/11/30 07:28:57;;;;;;;0.63;0.55;;;5.20;99.90;;;;;;5013666;28;20485;-65
2022/11/30 07:31:24;;;;;;;1.58;1.48;;;5.20;99.90;;;;;;5022897;28;20061;-64
2022/11/30 07:33:51;;;;;;;0.30;0.30;;;5.30;99.90;;;;;;5021464;28;20054;-64
2022/11/30 07:36:19;;;;;;;0.77;0.77;;;5.30;99.90;;;;;;5009270;28;20041;-64
2022/11/30 07:38:45;;;;;;;1.95;1.55;;;5.30;99.90;;;;;;5011233;28;20049;-64
2022/11/30 07:41:11;;;;;;;0.70;0.70;;;5.30;99.90;;;;;;5026902;28;20043;-64
2022/11/30 07:43:36;;;;;;;0.40;0.40;;;5.30;99.90;;;;;;5024493;28;20426;-64
2022/11/30 07:46:03;;;;;;;1.45;0.73;;;5.30;99.90;;;;;;5022437;28;20440;-64
2022/11/30 07:48:30;;;;;;;1.15;1.13;;;5.20;99.90;;;;;;5020723;28;20103;-64
2022/11/30 07:51:02;;;;;;;0.15;0.15;;;5.20;99.90;;;;;;5023773;28;20041;-64
2022/11/30 07:53:28;;;;;;;0.57;0.57;;;5.10;99.90;;;;;;5019129;28;20063;-64
2022/11/30 07:55:53;;;;;;;0.55;0.55;;;5.10;99.90;;;;;;5017281;28;20050;-64
2022/11/30 07:58:19;;;;;;;0.60;0.60;;;5.10;99.90;;;;;;5020294;28;20480;-65
2022/11/30 08:00:44;;;;;;;0.20;0.20;;;5.20;99.90;;;;;;5015504;28;20045;-64
2022/11/30 08:03:10;;;;;;;0.95;0.95;;;5.10;99.90;;;;;;5016206;28;20049;-64
2022/11/30 08:05:35;;;;;;;1.35;1.25;;;5.10;99.90;;;;;;5018859;28;20076;-64
2022/11/30 08:08:01;;;;;;;0.55;0.55;;;5.20;99.90;;;;;;5014692;28;20045;-64
2022/11/30 08:10:26;;;;;;;0.68;0.68;;;5.20;99.90;;;;;;5023859;28;20042;-64
2022/11/30 08:12:52;;;;;;;0.93;0.93;;;5.30;99.90;;;;;;5016012;28;20057;-64
2022/11/30 08:15:18;;;;;;;0.28;0.28;;;5.30;99.90;;;;;;5024768;28;20045;-64
2022/11/30 08:17:43;;;;;;;5.25;2.33;;;5.30;99.90;;;;;;5030399;28;20050;-64
2022/11/30 08:20:10;;;;;;;0.85;0.85;;;5.40;99.90;;;;;;5033628;28;20393;-64
2022/11/30 08:22:36;;;;;;;0.28;0.28;;;5.50;99.90;;;;;;5020803;28;20050;-64
2022/11/30 08:25:02;;;;;;;1.15;1.05;;;5.50;99.90;;;;;;5017643;28;20041;-64
2022/11/30 08:27:27;;;;;;;0.77;0.77;;;5.60;99.90;;;;;;5031639;28;20428;-64
2022/11/30 08:29:53;;;;;;;0.57;0.57;;;5.60;99.90;;;;;;5030868;28;20049;-64
2022/11/30 08:32:19;;;;;;;0.50;0.50;;;5.70;99.90;;;;;;5018807;28;20156;-64
2022/11/30 08:34:45;;;;;;;0.75;0.75;;;5.70;99.90;;;;;;5016305;28;20436;-64
2022/11/30 08:37:10;;;;;;;3.05;2.30;;;5.80;99.90;;;;;;5026457;28;20076;-64
2022/11/30 08:39:36;;;;;;;1.83;1.73;;;5.80;99.90;;;;;;5030132;28;20080;-64
2022/11/30 08:42:02;;;;;;;1.58;1.48;;;5.90;99.90;;;;;;5028295;28;20036;-64
2022/11/30 08:44:28;;;;;;;1.45;1.25;;;5.90;99.90;;;;;;5022866;28;20037;-64
2022/11/30 08:46:55;;;;;;;0.30;0.30;;;6.00;99.90;;;;;;5022063;28;20038;-64
2022/11/30 08:49:22;;;;;;;0.10;0.10;;;6.00;99.90;;;;;;5019270;28;20058;-64
2022/11/30 08:51:48;;;;;;;0.65;0.65;;;6.00;99.90;;;;;;5030944;28;20048;-64
2022/11/30 08:54:14;;;;;;;1.77;1.10;;;6.00;99.90;;;;;;5030508;28;20050;-64
2022/11/30 08:56:40;;;;;;;8.45;2.30;;;6.00;99.90;;;;;;5022525;28;20235;-64
2022/11/30 08:59:05;;;;;;;1.35;1.25;;;6.00;99.90;;;;;;5025078;28;20684;-64
2022/11/30 09:01:31;;;;;;;0.25;0.25;;;6.10;99.90;;;;;;5013485;28;20117;-64
2022/11/30 09:03:57;;;;;;;2.67;2.58;;;6.10;99.90;;;;;;5023913;28;20128;-64
2022/11/30 09:06:25;;;;;;;0.17;0.17;;;6.20;99.90;;;;;;5030458;28;20052;-64
2022/11/30 09:08:54;;;;;;;0.15;0.15;;;6.20;99.90;;;;;;5028217;28;20044;-64
2022/11/30 09:11:23;;;;;;;4.70;3.35;;;6.20;99.90;;;;;;5015577;28;20497;-64
2022/11/30 09:13:49;;;;;;;0.35;0.35;;;6.30;99.90;;;;;;5023602;28;20118;-64
2022/11/30 09:16:17;;;;;;;0.65;0.65;;;6.40;99.90;;;;;;5022492;28;20649;-64
2022/11/30 09:18:43;;;;;;;0.43;0.43;;;6.40;99.90;;;;;;5016363;28;20426;-64
2022/11/30 09:21:11;;;;;;;0.85;0.85;;;6.40;99.90;;;;;;5027081;28;20040;-64
2022/11/30 09:23:38;;;;;;;0.20;0.20;;;6.50;99.90;;;;;;5014059;28;20037;-64
2022/11/30 09:26:07;;;;;;;0.10;0.10;;;6.60;99.90;;;;;;5021240;28;20061;-64
2022/11/30 09:28:33;;;;;;;1.27;1.17;;;6.70;99.90;;;;;;5017444;28;20096;-64
2022/11/30 09:31:04;;;;;;;0.30;0.22;;;6.80;99.90;;;;;;5036887;28;20146;-64
2022/11/30 09:33:31;;;;;;;0.43;0.43;;;6.80;99.90;;;;;;5027531;28;20505;-64
2022/11/30 09:35:59;;;;;;;0.20;0.20;;;6.80;99.90;;;;;;5014542;28;20057;-64
2022/11/30 09:38:25;;;;;;;0.73;0.73;;;6.80;99.90;;;;;;5024678;28;20030;-64
2022/11/30 09:40:59;;;;;;;0.28;0.28;;;6.80;99.90;;;;;;5024861;28;20050;-64
2022/11/30 09:43:48;;;;;;;0.32;0.32;;;6.80;99.90;;;;;;5023330;28;20069;-64
2022/11/30 09:46:14;;;;;;;0.22;0.22;;;6.90;99.90;;;;;;5016146;28;20260;-64
2022/11/30 09:49:01;;;;;;;1.90;1.80;;;7.00;99.90;;;;;;5030971;28;20124;-64
2022/11/30 09:51:35;;;;;;;1.48;1.08;;;7.10;99.90;;;;;;5017292;28;20045;-64
2022/11/30 09:54:08;;;;;;;0.28;0.28;;;7.10;99.90;;;;;;5015653;28;20294;-64
2022/11/30 09:56:37;;;;;;;0.20;0.20;;;7.10;99.90;;;;;;5024098;28;20124;-64
2022/11/30 09:59:28;;;;;;;0.98;0.98;;;7.20;99.90;;;;;;5023949;28;20060;-64
2022/11/30 10:01:56;;;;;;;0.57;0.57;;;7.20;99.90;;;;;;5021079;28;20730;-64
2022/11/30 10:04:24;;;;;;;0.85;0.85;;;7.30;99.90;;;;;;5026981;28;20045;-64
2022/11/30 10:07:28;;;;;;;0.70;0.70;;;7.30;99.90;;;;;;5020328;28;20561;-64
2022/11/30 10:10:09;;;;;;;0.50;0.50;;;7.30;99.90;;;;;;5006691;28;20058;-64
2022/11/30 10:13:04;;;;;;;0.45;0.45;;;7.40;99.90;;;;;;5014584;28;20783;-64
2022/11/30 10:15:41;;;;;;;0.50;0.50;;;7.50;99.90;;;;;;5021399;28;20068;-64
2022/11/30 10:18:28;;;;;;;1.58;1.48;;;7.50;99.90;;;;;;5023057;28;20068;-64
2022/11/30 10:21:15;;;;;;;1.00;0.80;;;7.50;99.90;;;;;;5022397;28;21876;-64
2022/11/30 10:23:46;;;;;;;0.28;0.28;;;7.50;99.90;;;;;;5025039;28;20042;-64
2022/11/30 10:26:15;;;;;;;0.45;0.45;;;7.60;99.90;;;;;;5020573;28;20048;-64
2022/11/30 10:28:50;;;;;;;0.30;0.30;;;7.60;99.90;;;;;;5015443;28;20062;-64
2022/11/30 10:31:19;;;;;;;0.55;0.55;;;7.60;99.90;;;;;;5018414;28;20089;-64
2022/11/30 10:33:47;;;;;;;0.68;0.68;;;7.60;99.90;;;;;;5023498;28;20099;-64
2022/11/30 10:36:28;;;;;;;1.38;1.30;;;7.60;99.90;;;;;;5025876;28;20049;-64
2022/11/30 10:38:59;;;;;;;1.08;1.05;;;7.60;99.90;;;;;;5017998;28;20049;-64
2022/11/30 10:41:50;;;;;;;0.47;0.47;;;7.60;99.90;;;;;;5018675;28;20426;-64
2022/11/30 10:44:27;;;;;;;0.30;0.30;;;7.60;99.90;;;;;;5025568;28;20076;-64
2022/11/30 10:47:05;;;;;;;0.20;0.20;;;7.60;99.90;;;;;;5020437;28;20120;-64
2022/11/30 10:49:32;;;;;;;0.30;0.30;;;7.50;99.90;;;;;;5031319;28;20045;-64
2022/11/30 10:52:05;;;;;;;0.10;0.10;;;7.60;99.90;;;;;;5025286;28;20045;-64
2022/11/30 10:54:33;;;;;;;1.30;1.20;;;7.60;99.90;;;;;;5025815;28;20052;-64
2022/11/30 10:57:01;;;;;;;0.85;0.85;;;7.50;99.90;;;;;;5019178;28;20057;-64
2022/11/30 10:59:47;;;;;;;1.23;1.13;;;7.50;99.90;;;;;;5019591;28;20168;-64
2022/11/30 11:02:42;;;;;;;3.30;0.70;;;7.50;99.90;;;;;;5016230;28;20049;-64
2022/11/30 11:05:26;;;;;;;0.50;0.50;;;7.50;99.90;;;;;;5029254;28;20087;-64
2022/11/30 11:07:54;;;;;;;;;;;7.50;99.90;;;;;;5018176;28;20080;-63
2022/11/30 11:10:29;;;;;;;0.70;0.70;;;7.50;99.90;;;;;;5010511;28;20021;-64
2022/11/30 11:12:57;;;;;;;1.65;1.60;;;7.50;99.90;;;;;;5022950;28;20042;-64
2022/11/30 11:15:33;;;;;;;0.43;0.43;;;7.60;99.90;;;;;;5015051;28;20096;-64
2022/11/30 11:18:24;;;;;;;0.40;0.40;;;7.60;99.90;;;;;;5014785;28;20092;-64
2022/11/30 11:21:05;;;;;;;0.15;0.15;;;7.60;99.90;;;;;;5027563;28;20075;-64
2022/11/30 11:23:39;;;;;;;0.10;0.10;;;7.60;99.90;;;;;;5014286;28;20087;-64
2022/11/30 11:26:07;;;;;;;0.10;0.10;;;7.70;99.90;;;;;;5019441;28;20168;-64
2022/11/30 11:28:42;;;;;;;0.80;0.80;;;7.70;99.90;;;;;;5022292;28;20118;-64
2022/11/30 11:31:43;;;;;;;0.50;0.47;;;7.80;99.90;;;;;;5020800;28;20416;-64
2022/11/30 11:34:35;;;;;;;0.10;0.10;;;7.80;99.90;;;;;;5019506;28;20049;-64
2022/11/30 11:37:13;;;;;;;0.52;0.52;;;7.80;99.90;;;;;;5021850;28;20104;-64
2022/11/30 11:39:39;;;;;;;0.90;0.90;;;7.80;99.90;;;;;;5027889;28;20401;-64
2022/11/30 11:42:11;;;;;;;5.68;1.30;;;7.80;99.90;;;;;;5023983;28;20052;-64
2022/11/30 11:44:37;;;;;;;0.38;0.38;;;7.80;99.90;;;;;;5008893;28;20050;-64
2022/11/30 11:47:06;;;;;;;1.48;1.38;;;7.80;99.90;;;;;;5019488;28;20080;-64
2022/11/30 11:49:37;;;;;;;1.80;1.02;;;7.90;99.90;;;;;;5015896;28;20488;-64
2022/11/30 11:52:19;;;;;;;0.20;0.20;;;7.80;99.90;;;;;;5016452;28;20056;-64
2022/11/30 11:54:59;;;;;;;0.65;0.65;;;7.80;99.90;;;;;;5014278;28;20482;-64
2022/11/30 11:57:53;;;;;;;1.50;1.40;;;7.80;99.90;;;;;;5022808;28;20138;-64
2022/11/30 12:00:23;;;;;;;2.85;2.65;;;7.90;99.90;;;;;;5036771;28;20136;-64
2022/11/30 12:02:52;;;;;;;0.32;0.32;;;7.80;99.90;;;;;;5012541;28;20054;-64
2022/11/30 12:05:41;;;;;;;0.50;0.50;;;7.90;99.90;;;;;;5012887;28;20076;-64
2022/11/30 12:08:18;;;;;;;3.05;1.75;;;7.90;99.90;;;;;;5011655;28;20062;-64
2022/11/30 12:10:51;;;;;;;2.15;2.05;;;7.90;99.90;;;;;;5024428;28;20052;-64
2022/11/30 12:13:18;;;;;;;;;;;7.90;99.90;;;;;;5020195;28;20045;-64
2022/11/30 12:16:14;;;;;;;1.15;1.10;;;8.00;99.90;;;;;;5020032;28;21217;-64
2022/11/30 12:19:11;;;;;;;3.60;2.97;;;8.00;99.90;;;;;;5016778;28;20056;-64
2022/11/30 12:22:13;;;;;;;2.72;2.03;;;8.00;99.90;;;;;;5008969;28;20571;-64
2022/11/30 12:24:54;;;;;;;4.72;3.08;;;8.10;99.90;;;;;;5025547;28;20471;-63
2022/11/30 12:27:36;;;;;;;2.25;1.88;;;8.10;99.90;;;;;;5022950;28;20398;-63
2022/11/30 12:30:23;;;;;;;2.60;2.45;;;8.10;99.90;;;;;;5013400;28;20058;-63
2022/11/30 12:33:10;;;;;;;2.17;2.00;;;8.10;99.90;;;;;;5022259;28;20046;-64
2022/11/30 12:35:50;;;;;;;1.58;1.48;;;8.10;99.90;;;;;;5022699;28;20131;-63
2022/11/30 12:38:24;;;;;;;1.10;1.10;;;8.10;99.90;;;;;;5021488;28;20083;-64
2022/11/30 12:41:22;;;;;;;0.30;0.30;;;8.10;99.90;;;;;;5027810;28;20247;-63
2022/11/30 12:43:58;;;;;;;2.70;2.13;;;8.10;99.90;;;;;;5019912;28;20057;-64
2022/11/30 12:46:45;;;;;;;0.10;0.10;;;8.10;99.90;;;;;;5017788;28;20128;-64
2022/11/30 12:49:22;;;;;;;1.00;1.00;;;8.10;99.90;;;;;;5027488;28;20071;-64
2022/11/30 12:52:11;;;;;;;1.35;1.30;;;8.10;99.90;;;;;;5020012;28;20069;-65
2022/11/30 12:54:55;;;;;;;0.60;0.60;;;8.10;99.90;;;;;;5019085;28;20053;-65
2022/11/30 12:57:41;;;;;;;0.45;0.45;;;8.10;99.90;;;;;;5011669;28;20060;-65
2022/11/30 13:00:20;;;;;;;3.40;2.05;;;8.10;99.90;;;;;;5019925;28;20045;-65
2022/11/30 13:03:11;;;;;;;0.28;0.28;;;8.20;99.90;;;;;;5020374;28;20064;-65
2022/11/30 13:05:40;;;;;;;0.45;0.45;;;8.20;99.90;;;;;;5017930;28;20049;-65
2022/11/30 13:08:29;;;;;;;0.45;0.45;;;8.20;99.90;;;;;;5019154;28;20702;-65
2022/11/30 13:11:01;;;;;;;0.30;0.30;;;8.20;99.90;;;;;;5026554;28;20045;-65
2022/11/30 13:13:32;;;;;;;0.20;0.20;;;8.20;99.90;;;;;;5023926;28;20064;-65
2022/11/30 13:16:00;;;;;;;1.20;1.10;;;8.20;99.90;;;;;;5012329;28;20100;-66
2022/11/30 13:18:27;;;;;;;0.15;0.15;;;8.20;99.90;;;;;;5026260;28;20045;-65